Time;durP1;ratioP1;P1;durP2;ratioP2;P2;SDS_P1;SDS_P2;PMS_P1;PMS_P2;Temp;Humidity;BMP_temperature;BMP_pressure;BME280_temperature;BME280_humidity;BME280_pressure;Samples;Min_cycle;Max_cycle;Signal;HPM_P1;HPM_P2
2021/01/24 00:00:28;;;;;;;28.37;17.10;;;;;;;2.02;89.67;98631.20;124114;1146;22670;-63
2021/01/24 00:02:55;;;;;;;31.83;16.50;;;;;;;2.03;89.93;98643.59;124344;1146;22696;-62
2021/01/24 00:05:23;;;;;;;27.55;16.80;;;;;;;2.04;89.44;98633.67;124142;1147;23803;-62
2021/01/24 00:07:50;;;;;;;26.20;14.67;;;;;;;2.04;89.35;98629.11;124297;1146;22704;-62
2021/01/24 00:10:18;;;;;;;21.50;14.07;;;;;;;2.06;89.39;98626.20;124145;1146;22750;-63
2021/01/24 00:12:47;;;;;;;28.10;14.10;;;;;;;2.06;90.29;98621.66;124287;1147;22659;-63
2021/01/24 00:15:14;;;;;;;23.07;14.57;;;;;;;2.06;90.14;98610.09;124227;1146;22785;-62
2021/01/24 00:17:42;;;;;;;25.17;14.23;;;;;;;2.07;89.74;98609.86;124366;1146;22710;-63
2021/01/24 00:20:10;;;;;;;31.03;18.90;;;;;;;2.08;89.65;98610.69;124183;1147;22737;-62
2021/01/24 00:22:38;;;;;;;30.20;16.10;;;;;;;2.07;89.80;98609.05;124267;1147;23622;-63
2021/01/24 00:25:13;;;;;;;27.40;16.70;;;;;;;2.06;90.21;98608.22;124096;1147;22699;-63
2021/01/24 00:27:44;;;;;;;29.85;16.05;;;;;;;2.07;89.63;98598.30;124281;1148;23461;-63
2021/01/24 00:30:12;;;;;;;18.60;11.80;;;;;;;2.07;89.53;98601.80;124013;1147;22683;-62
2021/01/24 00:32:39;;;;;;;23.50;13.90;;;;;;;2.08;89.34;98597.25;124322;1147;22718;-62
2021/01/24 00:35:11;;;;;;;30.23;16.43;;;;;;;2.09;90.23;98598.89;124459;1145;22671;-61
2021/01/24 00:37:39;;;;;;;27.80;15.63;;;;;;;2.11;90.61;98586.06;124198;1145;22760;-62
2021/01/24 00:40:07;;;;;;;23.07;13.47;;;;;;;2.13;89.84;98573.22;124407;1147;23441;-62
2021/01/24 00:42:34;;;;;;;31.25;15.80;;;;;;;2.15;90.06;98570.31;124304;1147;22752;-62
2021/01/24 00:45:04;;;;;;;81.63;29.07;;;;;;;2.17;89.78;98573.56;124405;1146;23491;-62
2021/01/24 00:47:32;;;;;;;30.40;18.10;;;;;;;2.15;90.47;98568.45;124213;1146;22687;-61
2021/01/24 00:50:03;;;;;;;27.83;15.80;;;;;;;2.15;90.29;98565.77;124198;1147;22680;-63
2021/01/24 00:52:30;;;;;;;38.10;18.17;;;;;;;2.16;89.65;98570.09;124113;1146;23789;-61
2021/01/24 00:54:58;;;;;;;20.97;12.70;;;;;;;2.16;90.06;98570.09;124247;1147;22662;-61
2021/01/24 00:57:26;;;;;;;25.97;13.37;;;;;;;2.17;89.96;98563.64;124096;1147;23666;-61
2021/01/24 00:59:53;;;;;;;22.90;14.70;;;;;;;2.18;89.52;98564.46;124360;1147;22677;-61
2021/01/24 01:02:20;;;;;;;21.15;13.20;;;;;;;2.20;89.76;98557.81;124304;1147;22701;-61
2021/01/24 01:04:48;;;;;;;25.50;14.30;;;;;;;2.22;90.48;98561.10;124332;1146;22780;-61
2021/01/24 01:07:15;;;;;;;22.60;12.33;;;;;;;2.25;90.12;98555.28;124098;1146;22665;-61
2021/01/24 01:09:43;;;;;;;26.05;14.45;;;;;;;2.26;89.83;98546.17;124392;1146;22694;-61
2021/01/24 01:12:10;;;;;;;61.50;26.83;;;;;;;2.25;89.86;98544.53;124079;1146;22670;-61
2021/01/24 01:14:37;;;;;;;39.67;20.10;;;;;;;2.27;89.74;98549.67;124187;1146;23275;-61
2021/01/24 01:17:05;;;;;;;34.60;16.73;;;;;;;2.26;90.01;98546.17;124036;1147;22667;-61
2021/01/24 01:19:32;;;;;;;29.60;13.90;;;;;;;2.28;90.14;98552.14;124440;1147;22684;-61
2021/01/24 01:22:00;;;;;;;21.45;13.20;;;;;;;2.27;89.44;98561.25;124098;1145;22738;-61
2021/01/24 01:24:27;;;;;;;22.90;13.87;;;;;;;2.29;90.08;98558.34;124172;1147;22691;-61
2021/01/24 01:26:55;;;;;;;25.77;14.53;;;;;;;2.32;90.23;98552.48;124321;1146;22678;-61
2021/01/24 01:29:22;;;;;;;28.40;15.50;;;;;;;2.24;89.68;98539.38;124097;1146;23971;-61
2021/01/24 01:31:49;;;;;;;35.97;17.30;;;;;;;2.37;90.12;98552.63;124403;1147;22683;-61
2021/01/24 01:34:17;;;;;;;24.13;14.00;;;;;;;2.40;89.57;98550.30;124148;1146;22694;-61
2021/01/24 01:36:44;;;;;;;26.93;14.87;;;;;;;2.40;89.71;98544.93;124286;1147;22690;-61
2021/01/24 01:39:12;;;;;;;30.43;16.17;;;;;;;2.40;89.90;98550.30;123875;1148;22724;-61
2021/01/24 01:41:39;;;;;;;23.17;13.10;;;;;;;2.42;89.69;98550.91;124126;1148;23452;-62
2021/01/24 01:44:07;;;;;;;21.00;12.50;;;;;;;2.42;89.54;98548.21;124109;1148;22698;-61
2021/01/24 01:46:34;;;;;;;21.00;12.65;;;;;;;2.44;89.75;98548.80;124186;1148;22681;-61
2021/01/24 01:49:02;;;;;;;19.57;11.37;;;;;;;2.45;89.56;98544.25;124060;1148;22751;-61
2021/01/24 01:51:30;;;;;;;21.57;12.40;;;;;;;2.46;89.76;98543.17;124145;1148;22724;-61
2021/01/24 01:53:58;;;;;;;28.75;15.70;;;;;;;2.47;89.90;98539.44;124041;1146;22805;-61
2021/01/24 01:56:26;;;;;;;28.55;13.65;;;;;;;2.48;90.10;98543.77;123984;1148;23559;-61
2021/01/24 01:58:53;;;;;;;21.60;11.33;;;;;;;2.49;89.91;98543.54;124008;1148;22799;-61
2021/01/24 02:01:45;;;;;;;22.70;13.00;;;;;;;2.49;90.37;98526.59;124336;1146;22686;-61
2021/01/24 02:04:44;;;;;;;24.50;13.75;;;;;;;2.51;89.96;98529.05;124130;1145;22725;-61
2021/01/24 02:07:15;;;;;;;30.70;16.40;;;;;;;2.54;90.16;98525.91;124128;1149;22690;-61
2021/01/24 02:09:55;;;;;;;27.33;12.90;;;;;;;2.55;90.20;98517.61;124026;1148;22768;-61
2021/01/24 02:12:41;;;;;;;22.13;13.00;;;;;;;2.56;89.74;98513.06;124121;1148;22700;-63
2021/01/24 02:15:11;;;;;;;25.25;13.85;;;;;;;2.60;90.35;98514.24;124210;1148;22727;-58
2021/01/24 02:17:43;;;;;;;18.83;9.43;;;;;;;2.60;90.01;98504.28;124160;1148;22833;-62
2021/01/24 02:20:40;;;;;;;52.80;21.97;;;;;;;2.63;90.33;98511.06;123985;1148;22767;-62
2021/01/24 02:23:12;;;;;;;53.07;21.33;;;;;;;2.68;90.36;98505.83;124292;1148;22676;-62
2021/01/24 02:25:58;;;;;;;18.70;10.77;;;;;;;2.72;90.14;98509.70;124016;1148;22677;-62
2021/01/24 02:28:49;;;;;;;25.80;12.15;;;;;;;2.71;90.36;98500.81;124179;1148;23413;-62
2021/01/24 02:31:16;;;;;;;18.80;10.10;;;;;;;2.73;90.86;98516.72;123953;1148;23787;-62
2021/01/24 02:33:43;;;;;;;17.70;9.07;;;;;;;2.74;90.09;98511.08;124168;1148;22703;-62
2021/01/24 02:36:11;;;;;;;21.43;9.80;;;;;;;2.77;90.37;98509.80;123941;1148;22778;-63
2021/01/24 02:38:38;;;;;;;14.50;8.40;;;;;;;2.78;90.25;98517.64;124216;1148;22769;-63
2021/01/24 02:41:09;;;;;;;24.23;10.47;;;;;;;2.80;90.30;98504.78;124011;1148;22684;-60
2021/01/24 02:43:37;;;;;;;50.83;20.10;;;;;;;2.81;89.93;98500.22;124193;1148;22691;-61
2021/01/24 02:46:05;;;;;;;19.00;10.20;;;;;;;2.82;90.40;98496.48;124176;1148;22704;-61
2021/01/24 02:48:32;;;;;;;25.47;11.20;;;;;;;2.82;90.34;98494.61;124129;1146;22767;-61
2021/01/24 02:51:00;;;;;;;14.05;8.20;;;;;;;2.86;90.45;98494.97;123994;1148;22683;-61
2021/01/24 02:53:28;;;;;;;36.80;14.50;;;;;;;2.88;90.51;98498.25;124130;1148;22817;-62
2021/01/24 02:55:55;;;;;;;16.85;9.40;;;;;;;2.90;90.49;98496.12;123873;1148;22695;-62
2021/01/24 02:58:22;;;;;;;20.40;10.60;;;;;;;2.92;90.58;98494.02;124344;1147;22708;-62
2021/01/24 03:00:50;;;;;;;18.27;9.60;;;;;;;2.94;90.63;98499.17;124111;1146;22700;-62
2021/01/24 03:03:17;;;;;;;14.65;8.40;;;;;;;2.96;90.48;98489.81;123996;1149;22781;-62
2021/01/24 03:05:45;;;;;;;13.80;8.03;;;;;;;2.98;90.53;98485.02;124211;1148;22732;-62
2021/01/24 03:08:13;;;;;;;23.35;12.90;;;;;;;3.01;89.76;98478.36;124070;1148;23802;-62
2021/01/24 03:10:41;;;;;;;21.90;11.30;;;;;;;3.03;90.73;98477.05;124119;1148;23274;-63
2021/01/24 03:13:17;;;;;;;15.80;9.20;;;;;;;3.08;90.23;98473.66;124052;1147;23370;-62
2021/01/24 03:15:45;;;;;;;34.60;17.30;;;;;;;3.08;90.24;98469.09;123025;1148;22923;-62
2021/01/24 03:18:16;;;;;;;25.85;14.65;;;;;;;3.10;90.95;98467.00;123972;1148;22890;-62
2021/01/24 03:20:45;;;;;;;13.95;9.60;;;;;;;3.11;90.20;98465.95;124104;1148;23158;-62
2021/01/24 03:23:12;;;;;;;9.95;7.40;;;;;;;3.10;90.24;98452.72;124002;1148;22658;-62
2021/01/24 03:25:39;;;;;;;14.35;10.30;;;;;;;3.11;90.50;98448.98;124185;1148;22773;-61
2021/01/24 03:28:07;;;;;;;17.00;10.25;;;;;;;3.04;90.14;98432.94;124135;1149;24445;-62
2021/01/24 03:30:34;;;;;;;13.75;8.30;;;;;;;3.14;90.42;98452.02;124353;1148;22680;-63
2021/01/24 03:33:03;;;;;;;12.70;8.05;;;;;;;3.18;90.61;98444.27;124104;1148;22769;-63
2021/01/24 03:35:30;;;;;;;12.37;8.17;;;;;;;3.18;90.40;98442.40;124118;1148;25465;-63
2021/01/24 03:37:57;;;;;;;11.90;8.90;;;;;;;3.04;90.16;98422.18;124203;1146;23685;-63
2021/01/24 03:40:25;;;;;;;12.90;9.40;;;;;;;3.18;90.85;98436.20;124342;1146;23938;-63
2021/01/24 03:42:52;;;;;;;13.10;9.60;;;;;;;3.13;90.55;98436.93;124316;1145;22795;-63
2021/01/24 03:45:23;;;;;;;11.80;8.30;;;;;;;3.14;90.47;98441.26;124398;1145;22687;-63
2021/01/24 03:47:50;;;;;;;11.53;8.07;;;;;;;3.16;90.22;98441.02;124374;1145;22667;-63
2021/01/24 03:50:17;;;;;;;10.90;7.80;;;;;;;3.16;90.33;98447.23;124451;1145;22675;-63
2021/01/24 03:52:45;;;;;;;13.95;8.75;;;;;;;3.16;90.64;98439.16;124535;1145;22667;-63
2021/01/24 03:55:12;;;;;;;13.80;8.40;;;;;;;3.16;90.22;98439.16;124309;1145;22679;-63
2021/01/24 03:57:40;;;;;;;12.50;8.23;;;;;;;3.17;90.65;98435.38;124530;1145;23322;-62
2021/01/24 04:00:08;;;;;;;18.40;12.75;;;;;;;3.20;90.58;98434.09;124303;1146;23299;-62
2021/01/24 04:02:41;;;;;;;14.70;10.05;;;;;;;3.22;90.70;98437.37;124603;1145;22687;-63
2021/01/24 04:05:10;;;;;;;12.55;9.00;;;;;;;3.22;90.24;98436.55;124267;1146;23736;-62
2021/01/24 04:07:37;;;;;;;14.73;9.20;;;;;;;3.23;90.36;98430.11;124354;1145;22702;-63
2021/01/24 04:10:06;;;;;;;12.47;8.37;;;;;;;3.25;90.36;98430.70;124319;1146;23216;-63
2021/01/24 04:12:33;;;;;;;10.85;7.55;;;;;;;3.28;90.62;98430.23;124431;1145;22859;-62
2021/01/24 04:15:02;;;;;;;11.70;8.25;;;;;;;3.29;90.54;98421.92;124298;1145;22654;-63
2021/01/24 04:17:32;;;;;;;10.73;6.90;;;;;;;3.29;90.44;98423.79;124475;1145;22685;-63
2021/01/24 04:20:00;;;;;;;12.10;8.55;;;;;;;3.31;90.50;98418.99;124309;1145;22793;-62
2021/01/24 04:22:27;;;;;;;11.87;7.83;;;;;;;3.31;91.00;98425.20;124397;1145;22682;-63
2021/01/24 04:24:54;;;;;;;12.45;8.35;;;;;;;3.33;90.47;98416.85;124364;1146;22698;-62
2021/01/24 04:27:22;;;;;;;13.80;9.73;;;;;;;3.34;90.45;98421.18;124525;1145;26307;-63
2021/01/24 04:29:50;;;;;;;16.50;10.20;;;;;;;3.36;90.72;98416.38;124304;1145;22687;-63
2021/01/24 04:32:17;;;;;;;13.93;9.43;;;;;;;3.38;90.32;98415.09;124497;1145;22651;-63
2021/01/24 04:34:45;;;;;;;13.85;9.25;;;;;;;3.39;90.27;98415.91;124368;1145;23208;-63
2021/01/24 04:37:12;;;;;;;12.50;7.97;;;;;;;3.41;90.44;98413.80;124379;1146;22807;-63
2021/01/24 04:39:40;;;;;;;11.70;7.75;;;;;;;3.33;90.03;98384.55;124445;1145;23485;-62
2021/01/24 04:42:07;;;;;;;10.17;7.33;;;;;;;3.47;91.06;98412.83;124408;1146;22641;-63
2021/01/24 04:44:35;;;;;;;10.60;7.35;;;;;;;3.49;90.79;98403.46;124442;1145;22706;-62
2021/01/24 04:47:02;;;;;;;10.95;7.85;;;;;;;3.52;91.46;98402.98;124358;1145;22652;-63
2021/01/24 04:49:30;;;;;;;11.10;8.25;;;;;;;3.53;90.70;98404.62;124424;1145;22688;-63
2021/01/24 04:51:57;;;;;;;12.47;8.67;;;;;;;3.54;90.80;98400.06;124248;1145;22671;-63
2021/01/24 04:54:24;;;;;;;10.80;7.67;;;;;;;3.55;90.66;98396.31;124351;1146;23315;-61
2021/01/24 04:56:52;;;;;;;11.20;7.87;;;;;;;3.57;90.67;98394.20;124233;1146;22736;-63
2021/01/24 04:59:19;;;;;;;10.45;8.05;;;;;;;3.59;90.71;98393.96;124425;1146;22681;-63
2021/01/24 05:01:47;;;;;;;10.70;7.20;;;;;;;3.62;90.51;98388.07;124288;1146;23483;-64
2021/01/24 05:04:14;;;;;;;9.25;6.50;;;;;;;3.63;91.08;98390.52;124399;1145;22700;-64
2021/01/24 05:06:42;;;;;;;12.00;8.10;;;;;;;3.66;90.67;98392.74;124222;1146;23502;-61
2021/01/24 05:09:10;;;;;;;9.10;7.15;;;;;;;3.70;90.73;98396.59;124527;1145;22675;-61
2021/01/24 05:11:37;;;;;;;11.50;8.30;;;;;;;3.74;91.00;98388.86;124331;1145;22656;-61
2021/01/24 05:14:15;;;;;;;11.63;7.83;;;;;;;3.76;91.17;98381.33;124394;1145;22707;-61
2021/01/24 05:16:42;;;;;;;10.13;7.30;;;;;;;3.78;90.91;98387.30;124336;1145;22681;-61
2021/01/24 05:19:10;;;;;;;11.20;7.00;;;;;;;3.79;91.07;98383.55;124450;1145;22779;-61
2021/01/24 05:21:37;;;;;;;10.25;7.45;;;;;;;3.79;90.78;98387.05;124352;1145;23799;-62
2021/01/24 05:24:16;;;;;;;8.93;6.33;;;;;;;3.79;90.54;98376.28;124433;1145;22692;-61
2021/01/24 05:26:45;;;;;;;9.70;6.80;;;;;;;3.81;90.60;98384.13;121368;1146;24337;-61
2021/01/24 05:29:26;;;;;;;9.80;6.87;;;;;;;3.83;90.64;98371.23;124559;1145;22748;-62
2021/01/24 05:31:54;;;;;;;10.60;7.37;;;;;;;3.84;91.13;98372.87;124355;1145;22703;-62
2021/01/24 05:34:25;;;;;;;10.20;7.17;;;;;;;3.82;91.23;98383.88;124505;1145;22773;-62
2021/01/24 05:36:54;;;;;;;11.33;7.97;;;;;;;3.82;90.71;98381.19;124311;1145;22786;-61
2021/01/24 05:39:21;;;;;;;9.60;7.25;;;;;;;3.82;90.99;98380.38;124441;1145;22690;-62
2021/01/24 05:41:50;;;;;;;10.23;8.00;;;;;;;3.84;91.09;98386.34;124511;1145;22775;-62
2021/01/24 05:44:18;;;;;;;10.70;8.00;;;;;;;3.85;90.69;98383.41;124292;1145;22735;-61
2021/01/24 05:46:46;;;;;;;10.20;7.20;;;;;;;3.87;90.68;98389.38;124370;1146;23597;-62
2021/01/24 05:49:21;;;;;;;10.40;7.10;;;;;;;3.89;90.79;98386.44;124341;1145;22744;-62
2021/01/24 05:52:05;;;;;;;9.67;7.03;;;;;;;3.90;90.70;98383.47;124456;1146;22676;-62
2021/01/24 05:54:46;;;;;;;12.65;7.70;;;;;;;3.90;90.43;98375.39;124488;1145;22681;-61
2021/01/24 05:57:14;;;;;;;10.83;7.30;;;;;;;3.91;90.69;98368.94;124475;1145;22678;-61
2021/01/24 05:59:55;;;;;;;11.45;8.30;;;;;;;3.95;91.27;98371.16;124354;1145;23517;-61
2021/01/24 06:02:24;;;;;;;14.93;9.13;;;;;;;3.96;90.87;98373.61;124517;1146;22738;-61
2021/01/24 06:04:52;;;;;;;14.75;9.65;;;;;;;3.97;90.60;98375.25;124315;1146;22682;-62
2021/01/24 06:07:19;;;;;;;13.57;8.87;;;;;;;3.99;90.98;98364.23;124473;1146;23309;-61
2021/01/24 06:09:47;;;;;;;13.97;9.13;;;;;;;4.01;90.97;98364.81;124263;1146;22801;-62
2021/01/24 06:12:15;;;;;;;10.95;7.75;;;;;;;4.03;91.26;98362.69;124532;1145;22716;-62
2021/01/24 06:14:48;;;;;;;14.70;10.25;;;;;;;4.03;90.59;98357.30;124361;1146;23268;-61
2021/01/24 06:17:28;;;;;;;13.35;8.95;;;;;;;4.03;90.84;98360.81;124502;1146;22669;-61
2021/01/24 06:20:00;;;;;;;13.33;9.03;;;;;;;4.04;91.10;98348.16;124300;1145;22695;-61
2021/01/24 06:22:32;;;;;;;13.30;9.07;;;;;;;4.05;91.27;98352.45;124334;1146;22717;-62
2021/01/24 06:25:00;;;;;;;16.87;10.43;;;;;;;4.06;90.66;98360.30;124209;1146;22783;-62
2021/01/24 06:27:29;;;;;;;34.35;15.90;;;;;;;4.07;90.94;98355.73;124399;1146;22711;-61
2021/01/24 06:29:56;;;;;;;16.40;10.00;;;;;;;4.10;90.70;98366.03;124279;1146;22693;-62
2021/01/24 06:32:28;;;;;;;17.35;11.55;;;;;;;4.08;90.46;98354.67;124444;1145;22924;-65
2021/01/24 06:35:14;;;;;;;14.20;10.00;;;;;;;4.10;91.00;98355.25;124296;1145;22674;-62
2021/01/24 06:38:00;;;;;;;15.97;10.30;;;;;;;4.10;91.18;98358.76;124442;1145;23562;-62
2021/01/24 06:40:31;;;;;;;20.45;13.10;;;;;;;4.11;90.88;98354.19;124302;1145;22799;-65
2021/01/24 06:43:01;;;;;;;24.75;14.60;;;;;;;4.13;90.29;98357.45;124390;1145;22687;-64
2021/01/24 06:45:28;;;;;;;19.20;13.25;;;;;;;4.14;90.65;98362.61;124309;1145;23756;-64
2021/01/24 06:47:59;;;;;;;17.63;11.67;;;;;;;4.15;90.62;98358.03;124562;1145;22699;-65
2021/01/24 06:50:34;;;;;;;18.50;12.00;;;;;;;4.16;90.87;98351.58;124262;1145;22700;-63
2021/01/24 06:53:08;;;;;;;17.30;11.50;;;;;;;4.18;91.17;98360.25;124464;1145;23198;-62
2021/01/24 06:55:38;;;;;;;16.50;11.73;;;;;;;4.21;90.54;98362.43;124386;1145;22650;-64
2021/01/24 06:58:24;;;;;;;16.85;10.80;;;;;;;4.24;90.79;98359.25;124427;1145;25057;-64
2021/01/24 07:00:51;;;;;;;20.83;13.40;;;;;;;4.25;91.01;98363.58;124667;1143;22687;-64
2021/01/24 07:03:19;;;;;;;22.33;15.57;;;;;;;4.25;90.84;98366.28;124678;1143;23624;-65
2021/01/24 07:05:47;;;;;;;24.45;15.40;;;;;;;4.24;91.29;98362.77;124319;1143;22685;-62
2021/01/24 07:08:34;;;;;;;22.05;14.70;;;;;;;4.25;91.01;98359.00;124650;1143;22696;-63
2021/01/24 07:11:02;;;;;;;26.97;17.48;;;;;;;4.25;90.96;98352.80;124586;1143;22669;-64
2021/01/24 07:13:29;;;;;;;25.10;15.97;;;;;;;4.25;91.15;98350.92;124723;1143;22649;-62
2021/01/24 07:16:07;;;;;;;26.73;15.60;;;;;;;4.25;91.33;98348.22;124632;1143;23476;-63
2021/01/24 07:18:42;;;;;;;25.07;14.47;;;;;;;4.29;90.97;98355.83;124857;1142;22697;-61
2021/01/24 07:21:10;;;;;;;23.75;14.95;;;;;;;4.31;90.89;98357.22;124682;1143;22681;-65
2021/01/24 07:23:40;;;;;;;26.55;15.20;;;;;;;4.32;90.92;98356.16;124766;1142;22761;-65
2021/01/24 07:26:10;;;;;;;28.95;16.00;;;;;;;4.35;91.05;98355.64;124682;1142;22697;-64
2021/01/24 07:28:38;;;;;;;31.80;16.85;;;;;;;4.39;90.93;98348.70;124771;1142;23631;-65
2021/01/24 07:31:05;;;;;;;32.13;18.33;;;;;;;4.41;91.39;98343.88;124422;1144;22679;-64
2021/01/24 07:33:33;;;;;;;36.65;20.60;;;;;;;4.45;90.92;98344.22;124869;1143;22889;-64
2021/01/24 07:36:02;;;;;;;30.50;18.30;;;;;;;4.47;90.91;98352.88;122999;1144;24369;-65
2021/01/24 07:38:30;;;;;;;36.53;19.60;;;;;;;4.47;91.46;98350.18;124731;1143;23585;-65
2021/01/24 07:40:58;;;;;;;30.60;16.95;;;;;;;4.49;91.25;98348.02;124487;1144;22786;-65
2021/01/24 07:43:26;;;;;;;37.50;17.95;;;;;;;4.49;90.82;98340.75;124603;1143;22674;-65
2021/01/24 07:45:55;;;;;;;32.00;17.10;;;;;;;4.53;91.23;98351.88;124866;1142;22754;-65
2021/01/24 07:48:22;;;;;;;29.70;17.05;;;;;;;4.56;91.09;98352.20;124595;1143;22680;-64
2021/01/24 07:50:49;;;;;;;31.43;16.37;;;;;;;4.59;90.76;98346.31;124826;1143;25886;-65
2021/01/24 07:53:17;;;;;;;30.00;16.10;;;;;;;4.61;91.01;98341.49;124399;1143;22774;-64
2021/01/24 07:55:44;;;;;;;31.00;17.90;;;;;;;4.63;91.03;98343.91;124743;1142;22650;-65
2021/01/24 07:58:12;;;;;;;37.47;19.70;;;;;;;4.63;90.94;98325.03;124688;1142;22659;-64
2021/01/24 08:00:40;;;;;;;30.55;17.20;;;;;;;4.66;91.28;98332.63;124782;1143;22634;-64
2021/01/24 08:03:07;;;;;;;31.80;18.25;;;;;;;4.67;90.85;98323.48;124648;1142;22702;-65
2021/01/24 08:05:35;;;;;;;32.20;18.70;;;;;;;4.70;90.89;98319.47;124692;1143;22672;-65
2021/01/24 08:08:02;;;;;;;34.10;18.65;;;;;;;4.72;90.61;98330.83;124536;1143;22701;-65
2021/01/24 08:10:31;;;;;;;37.85;18.30;;;;;;;4.71;91.05;98321.92;124798;1143;22684;-65
2021/01/24 08:12:58;;;;;;;36.70;19.75;;;;;;;4.72;90.87;98328.95;124549;1143;23656;-65
2021/01/24 08:15:26;;;;;;;35.23;19.30;;;;;;;4.72;90.76;98322.73;124750;1143;22677;-66
2021/01/24 08:17:54;;;;;;;35.40;19.05;;;;;;;4.72;90.88;98328.95;124621;1143;23339;-65
2021/01/24 08:20:22;;;;;;;31.40;17.67;;;;;;;4.74;91.33;98315.22;124632;1144;23294;-65
2021/01/24 08:22:49;;;;;;;33.05;17.35;;;;;;;4.76;91.00;98313.09;124382;1144;22759;-65
2021/01/24 08:25:23;;;;;;;40.10;18.35;;;;;;;4.78;90.83;98302.83;124473;1144;22687;-65
2021/01/24 08:27:51;;;;;;;33.20;16.30;;;;;;;4.78;90.87;98289.34;124463;1143;23314;-64
2021/01/24 08:30:18;;;;;;;29.43;16.07;;;;;;;4.79;91.00;98289.09;124802;1143;22705;-66
2021/01/24 08:32:46;;;;;;;35.40;17.40;;;;;;;4.82;90.92;98299.39;124592;1143;22795;-65
2021/01/24 08:35:14;;;;;;;34.00;17.50;;;;;;;4.85;91.36;98301.59;124460;1144;22663;-65
2021/01/24 08:37:42;;;;;;;30.90;15.90;;;;;;;4.86;91.07;98295.14;124716;1143;22739;-66
2021/01/24 08:40:10;;;;;;;34.65;17.05;;;;;;;4.89;90.92;98300.04;124525;1144;24167;-65
2021/01/24 08:42:47;;;;;;;25.90;16.35;;;;;;;4.93;91.03;98297.62;124576;1144;22698;-65
2021/01/24 08:45:20;;;;;;;30.30;15.43;;;;;;;4.97;90.78;98293.37;124436;1144;22698;-65
2021/01/24 08:47:53;;;;;;;37.15;15.85;;;;;;;5.01;91.35;98291.80;124678;1143;22729;-65
2021/01/24 08:50:29;;;;;;;30.68;15.55;;;;;;;5.05;90.99;98292.91;124545;1144;23470;-66
2021/01/24 08:53:00;;;;;;;32.15;17.85;;;;;;;5.05;90.76;98303.70;124740;1142;22679;-64
2021/01/24 08:55:28;;;;;;;34.13;17.80;;;;;;;5.06;90.57;98294.55;124508;1143;22670;-64
2021/01/24 08:57:55;;;;;;;31.47;17.43;;;;;;;5.07;91.38;98295.36;124719;1144;23297;-64
2021/01/24 09:00:24;;;;;;;29.60;15.63;;;;;;;5.08;90.88;98291.59;124517;1143;22717;-63
2021/01/24 09:02:51;;;;;;;36.45;16.25;;;;;;;5.11;90.64;98301.89;124621;1144;22832;-63
2021/01/24 09:05:28;;;;;;;33.75;19.10;;;;;;;5.12;91.08;98296.25;124655;1143;22663;-63
2021/01/24 09:07:56;;;;;;;33.88;16.12;;;;;;;5.17;90.65;98295.50;124781;1143;23553;-63
2021/01/24 09:10:24;;;;;;;28.70;14.60;;;;;;;5.18;90.86;98295.25;124717;1143;22696;-62
2021/01/24 09:12:53;;;;;;;29.90;13.93;;;;;;;5.22;91.08;98296.35;124734;1144;23466;-64
2021/01/24 09:15:21;;;;;;;29.85;14.45;;;;;;;5.25;90.33;98285.05;124527;1144;23562;-62
2021/01/24 09:17:49;;;;;;;26.87;12.50;;;;;;;5.26;90.80;98280.47;124646;1144;23689;-64
2021/01/24 09:20:17;;;;;;;31.30;15.40;;;;;;;5.29;91.16;98282.66;124664;1143;22689;-63
2021/01/24 09:22:45;;;;;;;28.90;12.90;;;;;;;5.32;91.16;98282.98;124621;1144;22664;-66
2021/01/24 09:25:12;;;;;;;24.87;12.67;;;;;;;5.36;90.71;98274.34;124551;1144;22650;-65
2021/01/24 09:27:40;;;;;;;25.10;13.10;;;;;;;5.40;90.47;98275.47;124774;1144;22675;-61
2021/01/24 09:30:09;;;;;;;34.65;15.70;;;;;;;5.41;90.50;98272.52;124771;1143;22684;-62
2021/01/24 09:32:37;;;;;;;34.00;16.05;;;;;;;5.43;90.54;98261.47;124649;1143;23502;-63
2021/01/24 09:35:05;;;;;;;24.57;14.87;;;;;;;5.44;90.22;98265.80;124722;1143;22653;-64
2021/01/24 09:37:33;;;;;;;24.95;13.85;;;;;;;5.46;90.23;98263.66;124483;1143;22790;-65
2021/01/24 09:40:00;;;;;;;33.37;14.40;;;;;;;5.48;90.67;98267.72;124836;1142;22696;-65
2021/01/24 09:42:28;;;;;;;31.73;16.60;;;;;;;5.51;90.51;98261.80;124673;1144;22668;-65
2021/01/24 09:44:55;;;;;;;26.00;14.53;;;;;;;5.54;89.89;98261.30;124827;1143;22708;-62
2021/01/24 09:47:22;;;;;;;33.17;14.67;;;;;;;5.60;90.50;98251.37;120409;1143;22921;-61
2021/01/24 09:49:50;;;;;;;20.95;12.85;;;;;;;5.61;90.34;98258.41;124757;1143;22762;-63
2021/01/24 09:52:18;;;;;;;27.40;13.85;;;;;;;5.62;90.01;98251.92;124541;1144;23665;-61
2021/01/24 09:54:45;;;;;;;27.10;15.15;;;;;;;5.64;90.42;98255.98;124785;1143;22659;-62
2021/01/24 09:57:12;;;;;;;19.65;12.00;;;;;;;5.67;90.24;98250.06;124635;1143;22672;-64
2021/01/24 09:59:40;;;;;;;24.80;12.37;;;;;;;5.70;90.20;98248.74;124747;1144;22702;-64
2021/01/24 10:02:09;;;;;;;20.50;10.65;;;;;;;5.73;90.57;98247.41;124529;1144;22682;-64
2021/01/24 10:04:36;;;;;;;21.05;11.40;;;;;;;5.76;90.00;98236.09;124744;1143;22694;-64
2021/01/24 10:07:04;;;;;;;21.70;11.80;;;;;;;5.78;89.98;98240.14;124553;1143;22761;-65
2021/01/24 10:09:32;;;;;;;25.70;12.95;;;;;;;5.80;89.69;98239.89;124756;1143;22783;-64
2021/01/24 10:12:00;;;;;;;29.67;12.93;;;;;;;5.81;89.63;98236.94;124638;1144;23213;-64
2021/01/24 10:14:27;;;;;;;22.67;12.23;;;;;;;5.84;89.56;98232.91;124706;1142;22681;-63
2021/01/24 10:16:55;;;;;;;28.40;11.95;;;;;;;5.87;89.38;98230.50;124814;1142;22680;-66
2021/01/24 10:19:23;;;;;;;26.85;13.75;;;;;;;5.90;89.90;98224.63;124641;1144;22786;-65
2021/01/24 10:21:50;;;;;;;27.80;13.73;;;;;;;5.92;89.29;98222.44;124737;1143;22689;-65
2021/01/24 10:24:18;;;;;;;25.05;11.15;;;;;;;5.95;89.67;98224.64;124642;1143;22677;-65
2021/01/24 10:26:45;;;;;;;28.27;13.33;;;;;;;5.97;89.45;98225.19;124710;1143;22695;-65
2021/01/24 10:29:12;;;;;;;24.80;11.85;;;;;;;6.00;88.72;98219.27;124489;1143;22680;-65
2021/01/24 10:31:40;;;;;;;22.45;10.20;;;;;;;6.01;88.88;98220.91;124655;1144;22674;-65
2021/01/24 10:34:07;;;;;;;17.95;9.05;;;;;;;6.03;88.70;98218.76;124690;1143;22645;-65
2021/01/24 10:36:35;;;;;;;21.00;10.65;;;;;;;6.05;88.73;98217.69;124742;1143;23934;-64
2021/01/24 10:39:02;;;;;;;20.75;10.20;;;;;;;6.05;88.85;98221.20;124630;1144;22702;-65
2021/01/24 10:41:30;;;;;;;20.05;13.45;;;;;;;6.06;88.33;98214.70;124802;1143;22784;-64
2021/01/24 10:43:59;;;;;;;18.70;10.90;;;;;;;6.07;88.24;98223.63;124580;1143;22731;-64
2021/01/24 10:46:33;;;;;;;22.90;10.60;;;;;;;6.09;88.52;98218.77;122032;1144;22932;-63
2021/01/24 10:49:02;;;;;;;32.10;12.30;;;;;;;6.12;88.66;98220.96;124641;1144;22678;-64
2021/01/24 10:51:30;;;;;;;28.27;15.97;;;;;;;6.13;88.38;98215.30;124751;1144;22784;-64
2021/01/24 10:56:12;;;;;;;31.23;14.33;;;;;;;6.19;88.30;98213.45;120123;1147;22932;-63
2021/01/24 10:58:40;;;;;;;27.30;13.93;;;;;;;6.22;88.49;98212.90;124444;1145;22771;-64
2021/01/24 11:01:07;;;;;;;24.50;11.45;;;;;;;6.25;88.76;98207.79;124273;1145;22671;-65
2021/01/24 11:03:35;;;;;;;21.97;12.23;;;;;;;6.27;88.47;98194.01;124242;1147;22778;-64
2021/01/24 11:06:03;;;;;;;28.70;14.20;;;;;;;6.29;88.81;98194.56;124088;1146;22690;-65
2021/01/24 11:08:31;;;;;;;29.00;12.85;;;;;;;6.30;88.20;98180.78;124336;1145;23328;-66
2021/01/24 11:11:00;;;;;;;24.75;13.10;;;;;;;6.34;88.36;98190.00;124267;1147;22685;-64
2021/01/24 11:13:28;;;;;;;18.10;10.25;;;;;;;6.37;87.62;98183.23;124226;1147;22997;-64
2021/01/24 11:15:55;;;;;;;26.55;14.00;;;;;;;6.44;88.13;98183.00;124362;1147;22710;-64
2021/01/24 11:18:22;;;;;;;26.33;11.07;;;;;;;6.47;87.74;98186.00;124220;1147;22689;-64
2021/01/24 11:20:50;;;;;;;29.25;11.50;;;;;;;6.50;87.50;98180.04;124104;1148;22680;-64
2021/01/24 11:23:17;;;;;;;17.00;8.80;;;;;;;6.53;88.15;98176.81;124291;1147;23432;-64
2021/01/24 11:25:45;;;;;;;28.90;11.80;;;;;;;6.57;87.03;98177.10;122930;1148;22919;-64
2021/01/24 11:28:12;;;;;;;23.70;11.50;;;;;;;6.59;87.93;98183.88;124228;1148;22828;-64
2021/01/24 11:30:39;;;;;;;22.15;8.85;;;;;;;6.61;87.42;98173.61;124142;1148;22672;-64